Time;durP1;ratioP1;P1;durP2;ratioP2;P2;SDS_P1;SDS_P2;PMS_P1;PMS_P2;Temp;Humidity;BMP_temperature;BMP_pressure;BME280_temperature;BME280_humidity;BME280_pressure;Samples;Min_cycle;Max_cycle;Signal;HPM_P1;HPM_P2
2022/06/05 02:07:21;;;;;;;9.13;8.00;;;15.10;99.90;;;;;;5416491;22;20240;-75
2022/06/05 02:10:13;;;;;;;9.27;8.47;;;14.70;99.90;;;;;;5051333;28;20646;-75
2022/06/05 02:12:38;;;;;;;9.60;8.20;;;14.60;99.90;;;;;;5051148;28;20231;-75
2022/06/05 02:15:05;;;;;;;8.80;7.90;;;14.60;99.90;;;;;;5034739;28;20181;-75
2022/06/05 02:17:32;;;;;;;8.30;7.60;;;14.60;99.90;;;;;;5051420;28;20193;-75
2022/06/05 02:20:00;;;;;;;8.37;7.67;;;14.60;99.90;;;;;;5034048;28;20189;-75
2022/06/05 02:22:35;;;;;;;8.53;7.60;;;14.50;99.90;;;;;;5050953;28;20201;-75
2022/06/05 02:25:01;;;;;;;8.83;8.00;;;14.50;99.90;;;;;;5050995;28;20177;-75
2022/06/05 02:27:28;;;;;;;10.33;8.43;;;14.40;99.90;;;;;;5034634;28;20671;-75
2022/06/05 02:29:55;;;;;;;8.97;8.17;;;14.30;99.90;;;;;;5051067;28;20628;-75
2022/06/05 02:32:33;;;;;;;9.37;8.57;;;14.20;99.90;;;;;;5034616;28;20178;-75
2022/06/05 02:35:16;;;;;;;9.47;8.03;;;14.20;99.90;;;;;;5050704;28;20208;-75
2022/06/05 02:37:45;;;;;;;8.67;7.97;;;14.30;99.90;;;;;;5050982;28;20617;-75
2022/06/05 02:40:36;;;;;;;9.03;8.10;;;14.40;99.90;;;;;;5050938;28;20201;-75
2022/06/05 02:43:14;;;;;;;9.13;8.23;;;14.60;99.90;;;;;;5050988;28;20165;-75
2022/06/05 02:45:45;;;;;;;9.10;7.60;;;14.60;99.90;;;;;;5050874;28;20193;-75
2022/06/05 02:48:22;;;;;;;9.40;8.40;;;14.50;99.90;;;;;;5051196;28;20598;-75
2022/06/05 02:50:54;;;;;;;9.20;7.77;;;14.50;99.90;;;;;;5050817;28;20256;-75
2022/06/05 02:53:20;;;;;;;8.37;7.47;;;14.50;99.90;;;;;;5034621;28;20268;-75
2022/06/05 02:55:45;;;;;;;8.67;7.87;;;14.60;99.90;;;;;;5034224;28;20268;-75
2022/06/05 02:58:13;;;;;;;8.80;8.00;;;14.60;99.90;;;;;;5034174;28;20212;-75
2022/06/05 03:00:40;;;;;;;8.90;8.10;;;14.60;99.90;;;;;;5034307;28;20178;-75
2022/06/05 03:05:51;;;;;;;8.30;7.50;;;14.60;99.90;;;;;;5051972;28;20247;-75
2022/06/05 03:08:18;;;;;;;8.30;7.50;;;14.50;99.90;;;;;;5034148;28;20174;-75
2022/06/05 03:10:44;;;;;;;8.33;7.53;;;14.50;99.90;;;;;;5050761;28;20211;-75
2022/06/05 03:13:11;;;;;;;7.63;6.93;;;14.50;99.90;;;;;;5033774;28;20177;-75
2022/06/05 03:15:37;;;;;;;8.03;7.27;;;14.50;99.90;;;;;;5050693;28;20178;-75
2022/06/05 03:18:04;;;;;;;7.70;7.00;;;14.50;99.90;;;;;;5050742;28;20693;-75
2022/06/05 03:20:30;;;;;;;7.33;6.73;;;14.60;99.90;;;;;;5050571;28;20170;-75
2022/06/05 03:22:55;;;;;;;8.27;7.00;;;14.60;99.90;;;;;;5033789;28;20208;-75
2022/06/05 03:25:24;;;;;;;7.53;6.83;;;14.60;99.90;;;;;;5033783;28;20576;-75
2022/06/05 03:27:50;;;;;;;8.30;7.43;;;14.60;99.90;;;;;;5050556;28;20196;-75
2022/06/05 03:30:17;;;;;;;8.50;7.70;;;14.60;99.90;;;;;;5052380;28;20182;-75
2022/06/05 03:32:44;;;;;;;9.80;7.97;;;14.60;99.90;;;;;;5037665;28;20186;-75
2022/06/05 03:35:10;;;;;;;9.13;8.20;;;14.30;99.90;;;;;;5037584;28;20193;-75
2022/06/05 03:37:36;;;;;;;8.87;8.07;;;13.90;99.90;;;;;;5054197;28;20213;-75
2022/06/05 03:40:06;;;;;;;9.07;7.80;;;13.70;99.90;;;;;;5054047;28;20178;-75
2022/06/05 03:42:31;;;;;;;9.50;8.60;;;13.70;99.90;;;;;;5054016;28;20188;-75
2022/06/05 03:44:57;;;;;;;8.33;7.50;;;13.90;99.90;;;;;;5037476;28;20166;-75
2022/06/05 03:47:22;;;;;;;9.00;8.10;;;14.00;99.90;;;;;;5055262;28;20201;-75
2022/06/05 03:49:48;;;;;;;10.43;8.33;;;14.00;99.90;;;;;;5054151;28;20249;-75
2022/06/05 03:52:14;;;;;;;9.47;8.57;;;14.10;99.90;;;;;;5037298;28;20178;-75
2022/06/05 03:54:39;;;;;;;10.30;8.77;;;14.00;99.90;;;;;;5037238;28;20260;-75
2022/06/05 03:57:06;;;;;;;9.20;8.40;;;14.00;99.90;;;;;;5054108;28;20577;-75
2022/06/05 03:59:34;;;;;;;9.13;8.33;;;14.20;99.90;;;;;;5037475;28;20209;-75
2022/06/05 04:02:00;;;;;;;8.53;7.83;;;14.30;99.90;;;;;;5037042;28;20605;-75
2022/06/05 04:04:25;;;;;;;7.67;7.07;;;14.40;99.90;;;;;;5037223;28;20635;-75
2022/06/05 04:06:51;;;;;;;8.07;7.30;;;14.40;99.90;;;;;;5053693;28;20225;-75
2022/06/05 04:09:16;;;;;;;8.70;7.90;;;14.30;99.90;;;;;;5036979;28;20174;-75
2022/06/05 04:11:42;;;;;;;9.10;8.30;;;14.40;99.90;;;;;;5037233;28;20203;-75
2022/06/05 04:14:08;;;;;;;8.33;7.53;;;14.40;99.90;;;;;;5037008;28;20243;-75
2022/06/05 04:16:36;;;;;;;9.03;8.23;;;14.50;99.90;;;;;;5053622;28;20331;-75
2022/06/05 04:19:03;;;;;;;8.47;7.77;;;14.50;99.90;;;;;;5053562;28;20184;-75
2022/06/05 04:21:32;;;;;;;8.17;7.43;;;14.50;99.90;;;;;;5037012;28;20188;-75
2022/06/05 04:23:57;;;;;;;7.73;7.03;;;14.60;99.90;;;;;;5036731;28;20189;-75
2022/06/05 04:26:27;;;;;;;8.40;7.70;;;14.60;99.90;;;;;;5053526;28;20217;-75
2022/06/05 04:28:54;;;;;;;8.57;7.67;;;14.50;99.90;;;;;;5036660;28;20228;-75
2022/06/05 04:31:24;;;;;;;9.43;8.47;;;14.60;99.90;;;;;;5036845;28;20178;-75
2022/06/05 04:33:51;;;;;;;9.40;8.60;;;14.40;99.90;;;;;;5052864;28;20213;-75
2022/06/05 04:36:17;;;;;;;9.20;8.30;;;14.40;99.90;;;;;;5054377;28;20671;-75
2022/06/05 04:38:43;;;;;;;11.17;9.10;;;14.50;99.90;;;;;;5036538;28;20192;-75
2022/06/05 04:41:09;;;;;;;9.60;8.70;;;14.50;99.90;;;;;;5053099;28;20273;-75
2022/06/05 04:43:35;;;;;;;10.63;9.57;;;14.50;99.90;;;;;;5035527;28;20272;-75
2022/06/05 04:46:01;;;;;;;9.53;8.63;;;14.50;99.90;;;;;;5036508;28;20209;-75
2022/06/05 04:48:26;;;;;;;9.67;8.83;;;14.50;99.90;;;;;;5053066;28;20181;-75
2022/06/05 04:50:52;;;;;;;9.93;8.60;;;14.50;99.90;;;;;;5036455;28;20548;-75
2022/06/05 04:53:18;;;;;;;9.53;8.60;;;14.70;99.90;;;;;;5052678;28;20228;-75
2022/06/05 04:55:44;;;;;;;9.50;8.20;;;14.70;99.90;;;;;;5036355;28;20182;-75
2022/06/05 04:58:10;;;;;;;9.40;8.50;;;14.80;99.90;;;;;;5036049;28;20698;-75
2022/06/05 05:00:35;;;;;;;9.93;8.43;;;14.70;99.90;;;;;;5036182;28;20555;-75
2022/06/05 05:03:01;;;;;;;8.53;7.73;;;14.80;99.90;;;;;;5052524;28;20209;-75
2022/06/05 05:05:26;;;;;;;8.47;7.77;;;14.90;99.90;;;;;;5035991;28;20737;-75
2022/06/05 05:07:52;;;;;;;8.80;7.97;;;15.00;99.90;;;;;;5036040;28;20224;-75
2022/06/05 05:10:18;;;;;;;8.53;7.73;;;15.10;99.90;;;;;;5035843;28;20272;-75
2022/06/05 05:12:43;;;;;;;8.50;7.70;;;15.30;99.90;;;;;;5035766;28;20181;-75
2022/06/05 05:15:10;;;;;;;8.33;7.53;;;15.30;99.90;;;;;;5052540;28;20540;-75
2022/06/05 05:17:36;;;;;;;9.00;8.20;;;15.50;99.90;;;;;;5052693;28;20285;-76
2022/06/05 05:20:03;;;;;;;8.93;8.03;;;15.50;99.90;;;;;;5052318;28;20174;-76
2022/06/05 05:22:28;;;;;;;8.07;7.37;;;15.70;99.90;;;;;;5035567;28;20636;-76
2022/06/05 05:24:54;;;;;;;8.93;8.10;;;15.80;99.90;;;;;;5035843;28;20299;-76
2022/06/05 05:27:20;;;;;;;8.73;7.83;;;15.90;99.90;;;;;;5052135;28;20719;-76
2022/06/05 05:29:46;;;;;;;9.07;8.17;;;16.00;99.90;;;;;;5052365;28;20644;-76
2022/06/05 05:32:12;;;;;;;8.90;8.10;;;16.10;99.90;;;;;;5052010;28;20223;-76
2022/06/05 05:34:38;;;;;;;9.37;8.47;;;16.30;99.90;;;;;;5035137;28;20178;-76
2022/06/05 05:37:04;;;;;;;9.77;8.73;;;16.30;99.90;;;;;;5052017;28;20202;-76
2022/06/05 05:42:14;;;;;;;10.30;9.40;;;16.30;99.90;;;;;;5052262;28;20216;-76
2022/06/05 05:44:46;;;;;;;9.60;8.70;;;16.40;99.90;;;;;;5051956;28;20549;-76
2022/06/05 05:47:18;;;;;;;9.30;8.50;;;16.60;99.90;;;;;;5051719;28;20566;-76
2022/06/05 05:49:44;;;;;;;9.40;8.60;;;16.70;99.90;;;;;;5051817;28;20209;-76
2022/06/05 05:52:11;;;;;;;9.03;8.23;;;16.70;99.90;;;;;;5051335;28;20255;-76
2022/06/05 05:54:38;;;;;;;8.37;7.63;;;16.80;99.90;;;;;;5051681;28;20220;-76
2022/06/05 05:57:04;;;;;;;8.90;8.00;;;16.80;99.90;;;;;;5051403;28;20560;-76
2022/06/05 05:59:30;;;;;;;8.67;7.80;;;16.90;99.90;;;;;;5051443;28;20622;-76
2022/06/05 06:01:55;;;;;;;8.23;7.53;;;17.00;99.90;;;;;;5051490;28;20256;-76
2022/06/05 06:04:21;;;;;;;8.43;7.63;;;17.00;99.90;;;;;;5034827;28;20547;-76
2022/06/05 06:06:51;;;;;;;8.33;7.63;;;17.20;99.90;;;;;;5052453;28;20297;-76
2022/06/05 06:09:17;;;;;;;11.37;8.97;;;17.20;99.90;;;;;;5051360;28;20183;-76
2022/06/05 06:11:43;;;;;;;8.40;7.70;;;17.20;99.90;;;;;;5052382;28;20675;-76
2022/06/05 06:14:09;;;;;;;8.77;7.80;;;17.20;99.90;;;;;;5052085;28;20170;-76
2022/06/05 06:16:35;;;;;;;7.53;6.93;;;17.30;99.90;;;;;;5035321;28;20205;-76
2022/06/05 06:19:01;;;;;;;8.53;7.83;;;17.30;99.90;;;;;;5051797;28;20682;-76
2022/06/05 06:21:28;;;;;;;8.67;7.97;;;17.40;99.90;;;;;;5051993;28;20268;-76
2022/06/05 06:23:53;;;;;;;9.00;8.20;;;17.50;99.90;;;;;;5053014;28;20165;-76
2022/06/05 06:26:19;;;;;;;9.03;8.20;;;17.50;99.90;;;;;;5034867;28;20209;-76
2022/06/05 06:28:45;;;;;;;8.50;7.70;;;17.60;99.90;;;;;;5051575;28;20659;-76
2022/06/05 06:31:13;;;;;;;8.33;7.63;;;17.60;99.90;;;;;;5035216;28;20261;-76
2022/06/05 06:34:18;;;;;;;7.67;6.97;;;17.70;99.90;;;;;;5034799;28;20260;-76
2022/06/05 06:36:44;;;;;;;7.50;6.77;;;17.90;99.90;;;;;;5052695;28;20234;-76
2022/06/05 06:39:09;;;;;;;6.87;6.33;;;18.00;99.90;;;;;;5035238;28;20269;-76
2022/06/05 06:41:36;;;;;;;6.90;6.40;;;18.10;99.90;;;;;;5035164;28;20185;-76
2022/06/05 06:44:03;;;;;;;6.80;6.20;;;18.30;99.90;;;;;;5035245;28;20182;-78
2022/06/05 06:46:30;;;;;;;7.43;6.83;;;18.40;99.90;;;;;;5051952;28;20215;-78
2022/06/05 06:48:56;;;;;;;8.70;7.97;;;18.40;99.90;;;;;;5052182;28;20181;-78
2022/06/05 06:51:22;;;;;;;9.00;8.30;;;18.40;99.90;;;;;;5035224;28;20243;-78
2022/06/05 06:53:48;;;;;;;8.87;8.17;;;18.30;99.90;;;;;;5035297;28;20268;-78
2022/06/05 06:56:20;;;;;;;9.33;8.53;;;18.20;99.90;;;;;;5051903;28;20194;-78
2022/06/05 06:58:46;;;;;;;9.67;8.77;;;18.20;99.90;;;;;;5035482;28;20216;-78
2022/06/05 07:01:12;;;;;;;9.20;8.40;;;18.20;99.90;;;;;;5051868;28;20204;-78
2022/06/05 07:03:39;;;;;;;8.97;8.27;;;18.20;99.90;;;;;;5052217;28;20208;-78
2022/06/05 07:06:08;;;;;;;9.40;8.70;;;18.20;99.90;;;;;;5053801;28;20356;-78
2022/06/05 07:08:34;;;;;;;8.83;8.07;;;18.30;99.90;;;;;;5039264;28;20200;-78
2022/06/05 07:11:00;;;;;;;8.67;7.87;;;18.50;99.90;;;;;;5039590;28;20176;-78
2022/06/05 07:13:26;;;;;;;8.77;8.07;;;18.70;99.90;;;;;;5039367;28;20212;-78
2022/06/05 07:15:52;;;;;;;7.77;7.17;;;18.90;99.90;;;;;;5055893;28;20173;-78
2022/06/05 07:18:18;;;;;;;6.30;5.80;;;19.10;99.90;;;;;;5055703;28;20173;-78
2022/06/05 07:20:45;;;;;;;5.20;4.50;;;19.20;99.90;;;;;;5056103;28;20178;-78
2022/06/05 07:23:11;;;;;;;8.20;7.50;;;19.40;99.90;;;;;;5055152;28;20177;-78
2022/06/05 07:25:38;;;;;;;8.63;7.80;;;19.50;99.90;;;;;;5039397;28;20201;-78
2022/06/05 07:28:05;;;;;;;8.50;7.60;;;19.40;99.90;;;;;;5056213;28;20170;-78
2022/06/05 07:30:31;;;;;;;7.97;7.20;;;19.50;99.90;;;;;;5055782;28;20169;-78
2022/06/05 07:32:57;;;;;;;7.40;6.80;;;19.50;99.90;;;;;;5055825;28;20239;-78
2022/06/05 07:35:34;;;;;;;7.30;6.57;;;19.70;99.90;;;;;;5055423;28;20662;-78
2022/06/05 07:37:59;;;;;;;7.70;7.00;;;19.90;99.90;;;;;;5055963;28;20177;-78
2022/06/05 07:40:25;;;;;;;7.55;6.95;;;20.00;99.90;;;;;;5039187;28;20177;-78
2022/06/05 07:42:50;;;;;;;3.90;3.60;;;20.30;99.90;;;;;;5038894;28;20615;-78
2022/06/05 07:45:16;;;;;;;4.38;4.00;;;20.40;99.90;;;;;;5038857;28;20193;-78
2022/06/05 07:47:44;;;;;;;3.60;3.25;;;20.70;99.90;;;;;;5055273;28;20196;-78
2022/06/05 07:50:11;;;;;;;3.88;3.15;;;21.00;99.90;;;;;;5055193;28;20257;-78
2022/06/05 07:55:21;;;;;;;3.50;3.20;;;21.10;99.90;;;;;;5055646;28;20288;-78
2022/06/05 07:57:47;;;;;;;3.20;3.00;;;21.20;99.90;;;;;;5038290;28;20289;-78
2022/06/05 08:00:14;;;;;;;3.88;2.97;;;21.00;99.90;;;;;;5038431;28;20190;-78
2022/06/05 08:02:40;;;;;;;3.70;3.00;;;21.00;99.90;;;;;;5038644;28;20586;-78
2022/06/05 08:05:06;;;;;;;2.90;2.70;;;21.00;99.90;;;;;;5038274;28;20178;-78
2022/06/05 08:07:34;;;;;;;3.38;2.85;;;20.90;99.90;;;;;;5043828;22;20230;-75
2022/06/05 08:10:01;;;;;;;3.45;3.00;;;20.90;99.90;;;;;;5014446;28;20171;-75
2022/06/05 08:12:30;;;;;;;3.80;3.45;;;20.80;99.90;;;;;;5013517;28;20182;-75
2022/06/05 08:14:56;;;;;;;3.50;3.20;;;20.70;99.90;;;;;;5014043;28;20171;-75
2022/06/05 08:17:25;;;;;;;3.42;3.22;;;20.60;99.90;;;;;;5012013;28;20211;-75
2022/06/05 08:19:51;;;;;;;3.22;3.03;;;20.60;99.90;;;;;;5014681;28;20167;-75
2022/06/05 08:22:20;;;;;;;3.40;3.10;;;20.50;99.90;;;;;;5013557;28;20175;-75
2022/06/05 08:24:46;;;;;;;3.45;3.00;;;20.50;99.90;;;;;;5013472;28;20186;-75
2022/06/05 08:27:18;;;;;;;3.15;2.95;;;20.50;99.90;;;;;;4997277;28;20214;-75
2022/06/05 08:29:44;;;;;;;4.40;4.00;;;20.40;99.90;;;;;;4997209;28;20175;-75
2022/06/05 08:32:11;;;;;;;4.75;3.50;;;20.20;99.90;;;;;;4997307;28;20175;-75
2022/06/05 08:34:37;;;;;;;3.70;3.40;;;20.20;99.90;;;;;;4997508;28;20184;-75
2022/06/05 08:43:10;;;;;;;4.03;3.70;;;20.00;99.90;;;;;;5013818;28;20190;-75
2022/06/05 08:46:00;;;;;;;4.47;4.07;;;19.90;99.90;;;;;;5013369;28;20205;-75
2022/06/05 08:48:32;;;;;;;4.00;3.70;;;19.90;99.90;;;;;;5013272;28;20181;-75
2022/06/05 08:51:30;;;;;;;4.10;3.80;;;19.90;99.90;;;;;;5013455;28;20182;-75
2022/06/05 08:54:05;;;;;;;4.15;3.85;;;19.90;99.90;;;;;;4962550;28;20183;-75
2022/06/05 08:56:52;;;;;;;4.50;4.00;;;19.90;99.90;;;;;;5012929;28;20248;-75
2022/06/05 08:59:44;;;;;;;4.78;4.38;;;20.00;99.90;;;;;;5013256;28;20183;-75
2022/06/05 09:02:18;;;;;;;4.88;4.50;;;20.10;99.90;;;;;;5013076;28;20171;-75
2022/06/05 09:04:54;;;;;;;5.18;4.20;;;20.30;99.90;;;;;;5014220;28;20553;-75
2022/06/05 09:07:25;;;;;;;4.32;4.00;;;20.30;99.90;;;;;;5012901;28;20714;-75
2022/06/05 09:09:59;;;;;;;4.25;3.90;;;20.30;99.90;;;;;;5012848;28;20185;-75
2022/06/05 09:12:35;;;;;;;3.90;3.60;;;20.30;99.90;;;;;;5012581;28;20641;-75
2022/06/05 09:15:30;;;;;;;3.78;3.35;;;20.40;99.90;;;;;;5012734;28;20194;-75
2022/06/05 09:17:58;;;;;;;3.22;2.92;;;20.40;99.90;;;;;;5013876;28;20700;-77
2022/06/05 09:20:47;;;;;;;3.33;3.03;;;20.50;99.90;;;;;;5012784;28;20182;-78
2022/06/05 09:23:49;;;;;;;3.50;3.20;;;20.50;99.90;;;;;;5012144;28;20179;-78
2022/06/05 09:26:21;;;;;;;3.70;3.40;;;20.50;99.90;;;;;;4996426;28;20217;-78
2022/06/05 09:28:56;;;;;;;3.50;3.20;;;20.60;99.90;;;;;;5012334;28;20206;-78
2022/06/05 09:31:39;;;;;;;3.72;3.42;;;20.60;99.90;;;;;;5012520;28;20556;-78
2022/06/05 09:34:12;;;;;;;3.25;2.95;;;20.60;99.90;;;;;;5013572;28;20181;-78
2022/06/05 09:36:38;;;;;;;4.05;3.45;;;20.70;99.90;;;;;;5012245;28;20199;-78
2022/06/05 09:39:30;;;;;;;3.83;3.53;;;20.70;99.90;;;;;;4996070;28;20183;-78
2022/06/05 09:42:29;;;;;;;4.20;3.90;;;20.70;99.90;;;;;;5005474;28;20616;-78
2022/06/05 09:45:23;;;;;;;4.50;4.20;;;20.70;99.90;;;;;;5013537;28;20664;-78
2022/06/05 09:47:55;;;;;;;5.28;4.53;;;20.70;99.90;;;;;;5012041;28;20238;-78
2022/06/05 09:50:27;;;;;;;4.95;4.50;;;20.60;99.90;;;;;;5012171;28;20163;-78
2022/06/05 09:52:53;;;;;;;5.47;4.50;;;20.60;99.90;;;;;;4995897;28;20661;-78
2022/06/05 09:55:39;;;;;;;4.85;4.38;;;20.50;99.90;;;;;;5011956;28;20194;-78
2022/06/05 09:58:28;;;;;;;5.18;4.68;;;20.50;99.90;;;;;;4998217;28;20195;-78
2022/06/05 10:01:29;;;;;;;5.45;5.00;;;20.50;99.90;;;;;;5011342;28;20194;-78
2022/06/05 10:03:57;;;;;;;5.68;5.07;;;20.50;99.90;;;;;;5012018;28;20620;-78
2022/06/05 10:06:41;;;;;;;5.47;4.97;;;20.40;99.90;;;;;;4979528;28;20223;-78
2022/06/05 10:09:21;;;;;;;5.68;5.25;;;20.50;99.90;;;;;;5013213;28;20529;-78
2022/06/05 10:12:13;;;;;;;7.40;5.63;;;20.50;99.90;;;;;;5011607;28;20171;-78
2022/06/05 10:15:17;;;;;;;5.82;5.25;;;20.40;99.90;;;;;;5012069;28;20225;-78
2022/06/05 10:17:58;;;;;;;5.45;5.05;;;20.40;99.90;;;;;;5007692;28;20289;-78
2022/06/05 10:20:29;;;;;;;5.43;4.93;;;20.50;99.90;;;;;;5012382;28;20662;-78
2022/06/05 10:23:19;;;;;;;5.72;5.32;;;20.60;99.90;;;;;;5011957;28;20320;-78
2022/06/05 10:26:22;;;;;;;5.55;4.97;;;20.50;99.90;;;;;;5011723;28;20683;-78
2022/06/05 10:28:52;;;;;;;6.07;5.20;;;20.50;99.90;;;;;;5011974;28;20175;-78
2022/06/05 10:31:20;;;;;;;7.00;5.15;;;20.60;99.90;;;;;;5011570;28;20704;-78
2022/06/05 10:34:17;;;;;;;5.53;5.13;;;20.60;99.90;;;;;;5011943;28;20551;-78
2022/06/05 10:36:52;;;;;;;4.90;4.50;;;20.70;99.90;;;;;;5012755;28;20676;-78
2022/06/05 10:39:28;;;;;;;4.90;4.50;;;20.80;99.90;;;;;;5011831;28;20181;-78
2022/06/05 10:41:53;;;;;;;4.57;4.28;;;20.90;99.90;;;;;;5012407;28;20194;-78
2022/06/05 10:44:26;;;;;;;5.70;4.50;;;21.00;99.90;;;;;;5013001;28;20175;-78
2022/06/05 10:47:00;;;;;;;6.85;5.45;;;21.00;99.90;;;;;;5011811;28;20209;-78
2022/06/05 10:49:36;;;;;;;5.03;4.63;;;21.00;99.90;;;;;;5011709;28;20163;-78
2022/06/05 10:52:36;;;;;;;5.90;4.65;;;21.10;99.90;;;;;;5012003;28;20214;-78
2022/06/05 10:55:37;;;;;;;4.75;4.25;;;21.10;99.90;;;;;;5012003;28;20175;-78
2022/06/05 10:58:32;;;;;;;5.30;4.80;;;21.00;99.90;;;;;;4993020;28;20209;-78
2022/06/05 11:01:12;;;;;;;5.57;5.07;;;21.00;99.90;;;;;;5011787;28;20182;-79
2022/06/05 11:04:10;;;;;;;6.60;5.18;;;21.00;99.90;;;;;;5012901;28;20190;-79
2022/06/05 11:07:13;;;;;;;8.48;6.68;;;21.00;99.90;;;;;;4979125;28;20226;-78
2022/06/05 11:09:52;;;;;;;5.95;5.28;;;21.00;99.90;;;;;;5011907;28;20179;-78
2022/06/05 11:15:52;;;;;;;5.03;4.63;;;21.00;99.90;;;;;;5012224;28;20265;-78
2022/06/05 11:18:29;;;;;;;9.75;8.48;;;21.00;99.90;;;;;;5011587;28;20174;-78
2022/06/05 11:20:59;;;;;;;6.15;5.65;;;21.00;99.90;;;;;;5012095;28;20175;-78
2022/06/05 11:23:34;;;;;;;5.68;5.18;;;21.00;99.90;;;;;;4979563;28;20238;-78
2022/06/05 11:26:20;;;;;;;5.57;5.18;;;21.00;99.90;;;;;;5011789;28;20194;-78
2022/06/05 11:29:08;;;;;;;5.97;5.47;;;21.00;99.90;;;;;;5011449;28;20171;-78
2022/06/05 11:32:06;;;;;;;6.03;5.53;;;20.90;99.90;;;;;;5011367;28;20171;-78
2022/06/05 11:35:02;;;;;;;7.72;5.63;;;20.90;99.90;;;;;;5011466;28;20206;-78
2022/06/05 11:37:56;;;;;;;6.05;5.05;;;20.80;99.90;;;;;;5012064;28;20217;-78
2022/06/05 11:40:31;;;;;;;6.47;5.88;;;20.80;99.90;;;;;;4985047;28;20194;-78
2022/06/05 11:43:25;;;;;;;5.97;5.38;;;20.80;99.90;;;;;;5013104;28;20178;-78
2022/06/05 11:45:59;;;;;;;6.25;5.75;;;20.80;99.90;;;;;;5012226;28;20229;-78
2022/06/05 11:48:40;;;;;;;7.05;6.00;;;20.70;99.90;;;;;;5012954;28;20178;-78
2022/06/05 11:51:06;;;;;;;6.65;6.05;;;20.70;99.90;;;;;;4996683;28;20183;-78
2022/06/05 11:54:00;;;;;;;6.45;5.95;;;20.60;99.90;;;;;;5016583;28;20175;-78
2022/06/05 11:56:46;;;;;;;6.35;5.75;;;20.70;99.90;;;;;;5016186;28;20282;-78
2022/06/05 11:59:35;;;;;;;6.32;5.72;;;20.80;99.90;;;;;;5017661;28;20174;-78
2022/06/05 12:02:13;;;;;;;6.05;5.65;;;21.00;99.90;;;;;;5017828;28;20258;-78
2022/06/05 12:05:07;;;;;;;6.28;5.70;;;21.10;99.90;;;;;;5017629;28;20178;-78
2022/06/05 12:07:33;;;;;;;6.32;5.72;;;21.30;99.90;;;;;;5017831;28;20270;-78
2022/06/05 12:10:06;;;;;;;6.05;5.55;;;21.60;99.90;;;;;;5016561;28;20190;-78
2022/06/05 12:13:02;;;;;;;6.07;5.57;;;21.80;99.90;;;;;;5016172;28;20182;-78
2022/06/05 12:15:44;;;;;;;6.55;5.70;;;21.80;99.90;;;;;;5013216;28;20275;-78
2022/06/05 12:18:18;;;;;;;6.03;5.43;;;21.90;99.90;;;;;;5016301;28;20191;-78
2022/06/05 12:21:09;;;;;;;6.32;5.72;;;21.80;99.90;;;;;;5016241;28;20177;-78
2022/06/05 12:23:41;;;;;;;5.88;5.18;;;21.80;99.90;;;;;;5015933;28;20653;-78
2022/06/05 12:26:32;;;;;;;6.15;5.65;;;21.80;99.90;;;;;;5017328;28;20283;-78
2022/06/05 12:29:09;;;;;;;5.75;5.22;;;21.70;99.90;;;;;;5017385;28;20175;-78
2022/06/05 12:31:48;;;;;;;5.65;5.15;;;21.70;99.90;;;;;;5017487;28;20641;-78
2022/06/05 12:34:27;;;;;;;5.93;5.35;;;21.80;99.90;;;;;;5016060;28;20175;-78
2022/06/05 12:37:16;;;;;;;6.00;5.50;;;21.70;99.90;;;;;;5015425;28;20297;-78
2022/06/05 12:39:47;;;;;;;6.68;6.07;;;21.70;99.90;;;;;;5017774;28;20570;-78
2022/06/05 12:42:18;;;;;;;6.00;5.50;;;21.60;99.90;;;;;;5015860;28;20190;-78
2022/06/05 12:44:49;;;;;;;6.05;5.55;;;21.60;99.90;;;;;;5015762;28;20167;-78
2022/06/05 12:47:52;;;;;;;7.70;6.00;;;21.70;99.90;;;;;;4999838;28;20270;-78
2022/06/05 12:50:21;;;;;;;6.32;5.63;;;21.90;99.90;;;;;;5016072;28;20182;-78
2022/06/05 12:53:07;;;;;;;6.25;5.65;;;22.00;99.90;;;;;;5015399;28;20175;-78
2022/06/05 12:55:36;;;;;;;6.72;6.20;;;22.10;99.90;;;;;;5015769;28;20174;-78
2022/06/05 12:58:07;;;;;;;6.90;6.30;;;22.10;99.90;;;;;;5014720;28;20249;-78
2022/06/05 13:00:50;;;;;;;6.50;6.00;;;21.90;99.90;;;;;;5015540;28;20182;-78
2022/06/05 13:03:42;;;;;;;7.15;6.10;;;21.90;99.90;;;;;;5014986;28;20209;-78
2022/06/05 13:06:18;;;;;;;6.70;6.05;;;21.80;99.90;;;;;;5014685;28;20241;-78
2022/06/05 13:08:49;;;;;;;6.57;6.07;;;21.70;99.90;;;;;;5015027;28;20266;-78
2022/06/05 13:11:28;;;;;;;6.70;6.07;;;21.70;99.90;;;;;;4999598;28;20673;-78
2022/06/05 13:14:17;;;;;;;6.70;6.20;;;21.80;99.90;;;;;;5016152;28;20167;-78
2022/06/05 13:17:21;;;;;;;6.72;6.20;;;21.80;99.90;;;;;;5016479;28;20199;-78
2022/06/05 13:20:02;;;;;;;6.47;5.97;;;21.90;99.90;;;;;;5016129;28;20170;-78
2022/06/05 13:22:34;;;;;;;7.15;6.30;;;21.90;99.90;;;;;;5014971;28;20179;-78
2022/06/05 13:25:15;;;;;;;6.43;5.93;;;22.10;99.90;;;;;;5015064;28;20723;-78
2022/06/05 13:27:56;;;;;;;6.35;5.85;;;22.20;99.90;;;;;;4998609;28;20712;-78
2022/06/05 13:30:24;;;;;;;6.47;5.97;;;22.30;99.90;;;;;;5014908;28;20646;-78
2022/06/05 13:33:05;;;;;;;6.55;5.88;;;22.30;99.90;;;;;;4998725;28;20621;-78
2022/06/05 13:35:49;;;;;;;7.55;6.80;;;22.30;99.90;;;;;;5014205;28;20167;-78
2022/06/05 13:38:46;;;;;;;7.22;5.90;;;22.20;99.90;;;;;;5014825;28;20182;-78
2022/06/05 13:41:17;;;;;;;6.20;5.70;;;22.20;99.90;;;;;;5014869;28;20234;-78
2022/06/05 13:43:48;;;;;;;6.55;5.90;;;22.10;99.90;;;;;;4997970;28;20175;-78
2022/06/05 13:46:27;;;;;;;6.72;6.13;;;22.20;99.90;;;;;;4998169;28;20211;-78
2022/06/05 13:49:17;;;;;;;6.65;6.07;;;22.60;99.90;;;;;;5015251;28;20246;-78
2022/06/05 13:52:10;;;;;;;6.40;5.88;;;23.00;99.90;;;;;;5014540;28;20175;-78
2022/06/05 13:54:54;;;;;;;5.80;5.30;;;23.40;99.90;;;;;;5015673;28;20163;-78
2022/06/05 13:57:38;;;;;;;5.95;5.45;;;23.50;99.90;;;;;;5014531;28;20198;-78
2022/06/05 14:00:12;;;;;;;5.88;5.40;;;23.40;99.90;;;;;;5015620;28;20175;-78
2022/06/05 14:02:44;;;;;;;6.20;5.70;;;23.30;99.90;;;;;;5015063;28;20205;-78
2022/06/05 14:05:12;;;;;;;6.00;5.50;;;23.00;99.90;;;;;;5015601;28;20198;-78
2022/06/05 14:08:03;;;;;;;6.65;5.80;;;23.00;99.90;;;;;;5044604;22;20226;-78
2022/06/05 14:10:48;;;;;;;6.47;5.88;;;22.90;99.90;;;;;;5053837;28;20228;-78
2022/06/05 14:13:15;;;;;;;6.18;5.68;;;22.80;99.90;;;;;;5039560;28;20682;-78
2022/06/05 14:15:58;;;;;;;6.43;5.82;;;22.50;99.90;;;;;;5054767;28;20539;-78
2022/06/05 14:18:40;;;;;;;6.63;5.90;;;22.50;99.90;;;;;;5037578;28;20595;-79
2022/06/05 14:21:35;;;;;;;6.47;5.88;;;22.50;99.90;;;;;;5053324;28;20233;-79
2022/06/05 14:24:07;;;;;;;6.75;6.20;;;22.40;99.90;;;;;;5039420;28;20217;-79
2022/06/05 14:26:45;;;;;;;6.68;6.07;;;22.30;99.90;;;;;;5053466;28;20241;-79
2022/06/05 14:29:36;;;;;;;6.55;6.05;;;22.20;99.90;;;;;;5053827;28;20195;-79
2022/06/05 14:32:07;;;;;;;6.47;5.88;;;22.20;99.90;;;;;;5052802;28;20217;-79
2022/06/05 14:34:36;;;;;;;6.40;5.90;;;22.10;99.90;;;;;;5070256;28;20243;-79
2022/06/05 14:37:24;;;;;;;6.55;5.97;;;22.00;99.90;;;;;;5054652;28;20182;-79
2022/06/05 14:39:53;;;;;;;6.68;6.07;;;22.00;99.90;;;;;;5070386;28;20170;-79
2022/06/05 14:42:33;;;;;;;7.28;6.53;;;21.90;99.90;;;;;;5054453;28;20170;-79
2022/06/05 14:45:07;;;;;;;6.75;6.15;;;21.90;99.90;;;;;;5070403;28;20576;-79
2022/06/05 14:47:51;;;;;;;7.18;6.57;;;21.80;99.90;;;;;;5069922;28;20252;-79
2022/06/05 14:50:31;;;;;;;7.43;6.78;;;21.70;99.90;;;;;;5069840;28;20169;-79
2022/06/05 14:53:48;;;;;;;6.50;6.00;;;21.70;99.90;;;;;;5053241;28;20173;-79
2022/06/05 14:59:40;;;;;;;6.40;5.85;;;21.60;99.90;;;;;;5054842;28;20181;-79
2022/06/05 15:02:17;;;;;;;6.60;6.00;;;21.60;99.90;;;;;;5053591;28;20196;-79
2022/06/05 15:05:09;;;;;;;6.75;6.03;;;21.50;99.90;;;;;;5053273;28;20648;-79
2022/06/05 15:07:40;;;;;;;6.57;6.03;;;21.60;99.90;;;;;;5050059;28;20233;-79
2022/06/05 15:10:37;;;;;;;6.57;6.07;;;21.60;99.90;;;;;;5052987;28;20177;-77
2022/06/05 15:13:34;;;;;;;6.45;5.85;;;21.70;99.90;;;;;;5051919;28;20257;-76
2022/06/05 15:16:33;;;;;;;6.15;5.65;;;21.70;99.90;;;;;;5051790;28;20169;-76
2022/06/05 15:19:00;;;;;;;6.25;5.75;;;21.80;99.90;;;;;;5051939;28;20180;-76
2022/06/05 15:21:43;;;;;;;5.82;5.40;;;21.80;99.90;;;;;;5050588;28;20169;-77
2022/06/05 15:24:25;;;;;;;6.25;5.65;;;21.90;99.90;;;;;;5051713;28;20177;-76
2022/06/05 15:27:15;;;;;;;5.88;5.38;;;21.90;99.90;;;;;;5051697;28;20213;-76
2022/06/05 15:29:40;;;;;;;5.63;5.00;;;22.00;99.90;;;;;;5071208;28;20170;-76
2022/06/05 15:32:24;;;;;;;6.20;5.60;;;22.10;99.90;;;;;;5071064;28;20180;-76
2022/06/05 15:35:09;;;;;;;6.00;5.40;;;22.10;99.90;;;;;;5054100;28;20169;-76
2022/06/05 15:38:10;;;;;;;5.40;4.90;;;22.10;99.90;;;;;;5055806;28;20193;-76
2022/06/05 15:40:46;;;;;;;6.45;5.20;;;22.00;99.90;;;;;;5054346;28;20165;-76
2022/06/05 15:43:43;;;;;;;5.25;4.85;;;22.00;99.90;;;;;;5055294;28;20174;-76
2022/06/05 15:46:23;;;;;;;5.38;4.90;;;22.00;99.90;;;;;;5070840;28;20205;-76
2022/06/05 15:49:10;;;;;;;5.95;5.35;;;22.00;99.90;;;;;;5070988;28;20196;-76
2022/06/05 15:52:10;;;;;;;5.10;4.70;;;22.00;99.90;;;;;;5055325;28;20531;-76